Time;durP1;ratioP1;P1;durP2;ratioP2;P2;SDS_P1;SDS_P2;PMS_P1;PMS_P2;Temp;Humidity;BMP_temperature;BMP_pressure;BME280_temperature;BME280_humidity;BME280_pressure;Samples;Min_cycle;Max_cycle;Signal;HPM_P1;HPM_P2
2022/04/13 00:00:15;;;;;;;0.40;0.40;;;12.30;83.90;;;;;;5053274;28;20257;-70
2022/04/13 00:02:42;;;;;;;0.30;0.30;;;12.30;85.10;;;;;;5052248;28;20908;-70
2022/04/13 00:05:09;;;;;;;0.30;0.30;;;12.30;84.30;;;;;;5053667;28;20403;-70
2022/04/13 00:07:36;;;;;;;0.30;0.30;;;12.30;84.20;;;;;;5053381;28;20818;-70
2022/04/13 00:10:04;;;;;;;0.30;0.30;;;12.30;82.80;;;;;;5053078;28;20398;-70
2022/04/13 00:12:29;;;;;;;0.30;0.30;;;12.30;84.40;;;;;;5053139;28;20393;-70
2022/04/13 00:14:55;;;;;;;0.30;0.30;;;12.20;85.60;;;;;;5053321;28;20910;-70
2022/04/13 00:17:22;;;;;;;0.30;0.30;;;12.20;85.30;;;;;;5053122;28;20201;-70
2022/04/13 00:19:47;;;;;;;0.30;0.30;;;12.20;84.40;;;;;;5053149;28;20227;-70
2022/04/13 00:22:13;;;;;;;0.30;0.30;;;12.20;84.30;;;;;;5053253;28;20513;-70
2022/04/13 00:24:39;;;;;;;0.30;0.30;;;12.20;84.90;;;;;;5053230;28;20404;-70
2022/04/13 00:27:04;;;;;;;0.30;0.30;;;12.30;84.40;;;;;;5053238;28;20209;-70
2022/04/13 00:29:30;;;;;;;0.30;0.30;;;12.30;83.10;;;;;;5053153;28;20638;-70
2022/04/13 00:31:59;;;;;;;0.30;0.30;;;12.30;85.00;;;;;;5051764;28;20195;-70
2022/04/13 00:34:25;;;;;;;0.30;0.30;;;12.30;87.00;;;;;;5053256;28;20306;-71
2022/04/13 00:36:51;;;;;;;0.30;0.30;;;12.20;87.70;;;;;;5053126;28;20428;-70
2022/04/13 00:39:17;;;;;;;0.30;0.30;;;12.20;88.60;;;;;;5053152;28;20408;-70
2022/04/13 00:41:42;;;;;;;0.30;0.30;;;12.10;88.90;;;;;;5052877;28;20627;-70
2022/04/13 00:44:10;;;;;;;0.30;0.30;;;12.20;89.20;;;;;;5053065;28;20225;-69
2022/04/13 00:46:36;;;;;;;0.30;0.30;;;12.10;89.30;;;;;;5052933;28;20198;-71
2022/04/13 00:49:04;;;;;;;0.30;0.30;;;12.10;89.60;;;;;;5052966;28;20437;-70
2022/04/13 00:51:30;;;;;;;0.30;0.30;;;12.10;89.00;;;;;;5052754;28;20463;-70
2022/04/13 00:54:00;;;;;;;0.30;0.30;;;12.10;89.00;;;;;;5052895;28;20393;-70
2022/04/13 00:56:28;;;;;;;0.30;0.30;;;11.90;89.30;;;;;;5052722;28;20257;-70
2022/04/13 00:59:07;;;;;;;0.30;0.30;;;11.90;88.90;;;;;;5052834;28;20175;-70
2022/04/13 01:01:42;;;;;;;0.30;0.30;;;12.00;89.70;;;;;;5052893;28;20170;-70
2022/04/13 01:07:30;;;;;;;0.30;0.30;;;11.90;90.80;;;;;;5052740;28;20467;-70
2022/04/13 01:09:57;;;;;;;0.30;0.30;;;11.80;90.50;;;;;;5052730;28;20401;-70
2022/04/13 01:12:23;;;;;;;0.30;0.30;;;11.90;90.50;;;;;;5051562;28;20931;-70
2022/04/13 01:14:49;;;;;;;0.30;0.30;;;11.90;89.90;;;;;;5052746;28;20392;-70
2022/04/13 01:17:14;;;;;;;0.30;0.30;;;11.90;90.00;;;;;;5052675;28;20269;-70
2022/04/13 01:19:40;;;;;;;0.30;0.30;;;12.00;90.20;;;;;;5052620;28;20209;-70
2022/04/13 01:22:19;;;;;;;0.30;0.30;;;12.00;90.80;;;;;;5052292;28;20189;-70
2022/04/13 01:24:46;;;;;;;0.30;0.30;;;12.00;90.90;;;;;;5053936;28;20194;-71
2022/04/13 01:27:14;;;;;;;0.30;0.30;;;12.00;90.20;;;;;;5054542;28;20253;-70
2022/04/13 01:29:39;;;;;;;0.30;0.30;;;12.10;90.00;;;;;;5055934;28;20409;-70
2022/04/13 01:32:05;;;;;;;0.30;0.30;;;12.10;90.20;;;;;;5056079;28;20200;-70
2022/04/13 01:34:31;;;;;;;0.30;0.30;;;12.10;90.20;;;;;;5056227;28;20198;-71
2022/04/13 01:36:56;;;;;;;0.30;0.30;;;12.10;90.50;;;;;;5055921;28;20937;-70
2022/04/13 01:39:22;;;;;;;0.30;0.30;;;12.10;90.70;;;;;;5056015;28;20171;-69
2022/04/13 01:41:48;;;;;;;0.30;0.30;;;12.00;90.80;;;;;;5055773;28;20166;-70
2022/04/13 01:44:15;;;;;;;0.30;0.30;;;12.00;90.60;;;;;;5055935;28;20170;-70
2022/04/13 01:46:41;;;;;;;0.30;0.30;;;11.90;90.30;;;;;;5055793;28;20448;-70
2022/04/13 01:49:07;;;;;;;0.30;0.30;;;11.80;90.00;;;;;;5055814;28;20238;-71
2022/04/13 01:51:33;;;;;;;0.30;0.30;;;11.70;88.30;;;;;;5055779;28;20491;-70
2022/04/13 01:53:58;;;;;;;0.30;0.30;;;11.70;90.20;;;;;;5055880;28;20166;-70
2022/04/13 01:56:24;;;;;;;0.40;0.40;;;11.70;90.90;;;;;;5055917;28;20261;-70
2022/04/13 01:58:50;;;;;;;0.30;0.30;;;11.60;91.00;;;;;;5054366;28;20257;-70
2022/04/13 02:01:16;;;;;;;0.40;0.40;;;11.60;91.20;;;;;;5055577;28;20580;-69
2022/04/13 02:03:41;;;;;;;0.30;0.30;;;11.50;91.20;;;;;;5055638;28;20181;-70
2022/04/13 02:06:07;;;;;;;0.30;0.30;;;11.50;91.40;;;;;;5055571;28;20623;-70
2022/04/13 02:08:33;;;;;;;0.30;0.30;;;11.30;91.50;;;;;;5055601;28;20194;-70
2022/04/13 02:10:59;;;;;;;0.30;0.30;;;11.20;92.40;;;;;;5053965;28;20170;-70
2022/04/13 02:13:24;;;;;;;0.30;0.30;;;11.00;92.70;;;;;;5055591;28;20668;-70
2022/04/13 02:15:50;;;;;;;0.30;0.30;;;11.00;92.90;;;;;;5055376;28;20650;-69
2022/04/13 02:18:16;;;;;;;0.33;0.33;;;11.00;92.80;;;;;;5055299;28;20236;-70
2022/04/13 02:20:42;;;;;;;0.30;0.30;;;10.90;92.80;;;;;;5053867;28;20424;-70
2022/04/13 02:23:08;;;;;;;0.30;0.30;;;10.90;92.90;;;;;;5055365;28;20186;-69
2022/04/13 02:25:35;;;;;;;0.30;0.30;;;10.90;92.80;;;;;;5055602;28;20178;-70
2022/04/13 02:28:04;;;;;;;0.30;0.30;;;10.90;93.00;;;;;;5054971;28;20639;-70
2022/04/13 02:30:30;;;;;;;0.30;0.30;;;10.70;92.70;;;;;;5054883;28;20170;-70
2022/04/13 02:32:56;;;;;;;0.30;0.30;;;10.80;92.00;;;;;;5055083;28;20163;-70
2022/04/13 02:35:21;;;;;;;0.30;0.30;;;10.70;92.00;;;;;;5053353;28;20182;-70
2022/04/13 02:37:47;;;;;;;0.30;0.30;;;10.70;91.90;;;;;;5054447;28;20190;-70
2022/04/13 02:40:13;;;;;;;0.40;0.40;;;10.80;92.10;;;;;;5054682;28;20178;-70
2022/04/13 02:42:39;;;;;;;0.30;0.30;;;10.60;92.50;;;;;;5054864;28;20637;-70
2022/04/13 02:45:05;;;;;;;0.30;0.30;;;10.40;92.80;;;;;;5054866;28;20170;-69
2022/04/13 02:47:32;;;;;;;0.30;0.30;;;10.50;92.70;;;;;;5054780;28;20209;-70
2022/04/13 02:50:00;;;;;;;0.40;0.40;;;10.50;92.50;;;;;;5054550;28;20174;-70
2022/04/13 02:52:28;;;;;;;0.30;0.30;;;10.50;92.10;;;;;;5054756;28;20581;-70
2022/04/13 02:54:54;;;;;;;0.30;0.30;;;10.60;92.00;;;;;;5054546;28;20166;-70
2022/04/13 02:57:20;;;;;;;0.30;0.30;;;10.60;91.80;;;;;;5054539;28;20251;-70
2022/04/13 02:59:46;;;;;;;0.30;0.30;;;10.50;92.40;;;;;;5054319;28;20651;-70
2022/04/13 03:02:15;;;;;;;0.30;0.30;;;10.40;92.80;;;;;;5054655;28;20170;-69
2022/04/13 03:04:46;;;;;;;0.30;0.30;;;10.30;93.40;;;;;;5054596;28;20189;-69
2022/04/13 03:07:14;;;;;;;0.30;0.30;;;10.20;93.80;;;;;;5054214;28;20606;-70
2022/04/13 03:09:40;;;;;;;0.38;0.38;;;10.10;93.90;;;;;;5053081;28;20604;-70
2022/04/13 03:12:07;;;;;;;0.30;0.30;;;10.10;94.00;;;;;;5054197;28;20202;-70
2022/04/13 03:14:34;;;;;;;0.30;0.30;;;10.00;94.50;;;;;;5054384;28;20897;-70
2022/04/13 03:17:00;;;;;;;0.30;0.30;;;10.00;94.60;;;;;;5054154;28;20206;-70
2022/04/13 03:19:26;;;;;;;0.30;0.30;;;10.00;94.60;;;;;;5054150;28;20185;-70
2022/04/13 03:21:53;;;;;;;0.30;0.30;;;9.90;95.00;;;;;;5053775;28;20429;-70
2022/04/13 03:24:20;;;;;;;0.30;0.30;;;9.90;94.60;;;;;;5054058;28;20579;-69
2022/04/13 03:26:45;;;;;;;0.30;0.30;;;9.90;94.40;;;;;;5053855;28;20248;-70
2022/04/13 03:29:11;;;;;;;0.40;0.40;;;9.80;94.60;;;;;;5054037;28;20233;-69
2022/04/13 03:31:37;;;;;;;0.30;0.30;;;9.80;95.00;;;;;;5052697;28;20209;-70
2022/04/13 03:34:02;;;;;;;0.30;0.30;;;9.70;95.40;;;;;;5054001;28;20709;-70
2022/04/13 03:36:28;;;;;;;0.30;0.30;;;9.70;95.50;;;;;;5053776;28;20178;-71
2022/04/13 03:38:54;;;;;;;0.30;0.30;;;9.80;95.30;;;;;;5052468;28;20644;-68
2022/04/13 03:41:19;;;;;;;0.40;0.40;;;9.80;95.20;;;;;;5053585;28;20176;-70
2022/04/13 03:43:45;;;;;;;0.30;0.30;;;9.80;95.30;;;;;;5054208;28;20607;-70
2022/04/13 03:46:11;;;;;;;0.30;0.30;;;9.80;94.60;;;;;;5051920;28;20174;-70
2022/04/13 03:48:36;;;;;;;0.30;0.30;;;9.80;94.90;;;;;;5053537;28;20182;-70
2022/04/13 03:51:02;;;;;;;0.30;0.30;;;9.80;94.70;;;;;;5053562;28;20177;-69
2022/04/13 03:53:29;;;;;;;0.30;0.30;;;9.80;94.80;;;;;;5053856;28;20201;-70
2022/04/13 03:55:55;;;;;;;0.40;0.40;;;9.80;94.40;;;;;;5053813;28;20623;-68
2022/04/13 03:58:20;;;;;;;0.60;0.60;;;9.70;94.00;;;;;;5051861;28;20213;-68
2022/04/13 04:00:49;;;;;;;0.30;0.30;;;9.70;94.20;;;;;;5054141;28;20201;-67
2022/04/13 04:03:18;;;;;;;0.30;0.30;;;9.70;94.30;;;;;;5064674;28;20268;-70
2022/04/13 04:05:44;;;;;;;0.30;0.30;;;9.70;94.60;;;;;;5053117;28;20205;-68
2022/04/13 04:08:11;;;;;;;0.30;0.30;;;9.50;94.90;;;;;;5050695;28;20784;-69
2022/04/13 04:10:37;;;;;;;0.30;0.30;;;9.60;94.90;;;;;;5051675;28;20484;-67
2022/04/13 04:13:03;;;;;;;0.30;0.30;;;9.60;94.80;;;;;;5052251;28;20649;-68
2022/04/13 04:15:28;;;;;;;0.30;0.30;;;9.60;94.80;;;;;;5053247;28;20408;-68
2022/04/13 04:17:54;;;;;;;0.30;0.30;;;9.50;94.90;;;;;;5053261;28;20193;-69
2022/04/13 04:20:20;;;;;;;0.30;0.30;;;9.50;95.00;;;;;;5053097;28;20181;-70
2022/04/13 04:22:45;;;;;;;0.30;0.30;;;9.50;95.10;;;;;;5053286;28;20661;-70
2022/04/13 04:25:11;;;;;;;0.30;0.30;;;9.40;95.20;;;;;;5053418;28;20216;-70
2022/04/13 04:27:37;;;;;;;0.30;0.30;;;9.30;95.20;;;;;;5053798;28;20233;-64
2022/04/13 04:30:04;;;;;;;0.30;0.30;;;9.50;97.40;;;;;;5053828;28;20536;-65
2022/04/13 04:32:31;;;;;;;0.30;0.30;;;10.10;97.50;;;;;;5053640;28;20192;-66
2022/04/13 04:34:56;;;;;;;0.30;0.30;;;10.80;96.50;;;;;;5053473;28;20570;-64
2022/04/13 04:37:22;;;;;;;0.30;0.30;;;11.40;94.50;;;;;;5053282;28;20276;-64
2022/04/13 04:39:48;;;;;;;0.30;0.30;;;12.00;92.80;;;;;;5053076;28;20200;-70
2022/04/13 04:42:13;;;;;;;0.40;0.40;;;12.50;91.10;;;;;;5051716;28;20166;-70
2022/04/13 04:44:39;;;;;;;0.30;0.30;;;12.40;87.40;;;;;;5053382;28;20412;-67
2022/04/13 04:47:05;;;;;;;0.30;0.30;;;11.90;87.20;;;;;;5053179;28;20202;-71
2022/04/13 04:49:31;;;;;;;0.30;0.30;;;11.50;88.80;;;;;;5054661;28;20193;-69
2022/04/13 04:51:57;;;;;;;0.30;0.30;;;11.10;90.20;;;;;;5053679;28;20170;-67
2022/04/13 04:54:22;;;;;;;0.30;0.30;;;10.80;90.80;;;;;;5054000;28;20167;-68
2022/04/13 04:56:48;;;;;;;0.30;0.30;;;10.50;91.10;;;;;;5053299;28;20208;-68
2022/04/13 04:59:15;;;;;;;0.30;0.30;;;10.20;91.90;;;;;;5053397;28;20177;-72
2022/04/13 05:01:41;;;;;;;0.30;0.30;;;10.10;91.70;;;;;;5056732;28;20177;-72
2022/04/13 05:04:07;;;;;;;0.30;0.30;;;10.10;92.10;;;;;;5055338;28;20571;-68
2022/04/13 05:06:33;;;;;;;0.30;0.30;;;10.10;92.50;;;;;;5057101;28;20194;-67
2022/04/13 05:08:59;;;;;;;0.30;0.30;;;10.00;92.70;;;;;;5057341;28;20465;-68
2022/04/13 05:11:25;;;;;;;0.30;0.30;;;9.90;93.50;;;;;;5056694;28;20435;-68
2022/04/13 05:13:51;;;;;;;0.30;0.30;;;9.90;93.90;;;;;;5056497;28;20420;-69
2022/04/13 05:16:19;;;;;;;0.30;0.30;;;9.90;94.00;;;;;;5056652;28;20170;-68
2022/04/13 05:18:45;;;;;;;0.30;0.30;;;9.90;93.70;;;;;;5056617;28;20186;-68
2022/04/13 05:21:12;;;;;;;0.30;0.30;;;9.90;94.20;;;;;;5059843;28;20177;-70
2022/04/13 05:23:38;;;;;;;0.30;0.30;;;10.00;93.50;;;;;;5062483;28;20954;-70
2022/04/13 05:26:04;;;;;;;0.30;0.30;;;10.00;93.30;;;;;;5061532;28;20257;-70
2022/04/13 05:28:30;;;;;;;0.30;0.30;;;10.10;93.40;;;;;;5061014;28;20456;-70
2022/04/13 05:30:56;;;;;;;0.30;0.30;;;10.10;93.50;;;;;;5063443;28;20162;-70
2022/04/13 05:33:22;;;;;;;0.30;0.30;;;10.20;93.60;;;;;;5062807;28;20451;-70
2022/04/13 05:35:48;;;;;;;0.30;0.30;;;10.20;93.40;;;;;;5062770;28;20166;-70
2022/04/13 05:38:13;;;;;;;0.30;0.30;;;10.30;93.60;;;;;;5062299;28;20433;-70
2022/04/13 05:40:39;;;;;;;0.30;0.30;;;10.50;93.70;;;;;;5059911;28;20250;-69
2022/04/13 05:43:05;;;;;;;0.30;0.30;;;10.60;93.60;;;;;;5056149;28;20591;-72
2022/04/13 05:45:31;;;;;;;0.30;0.30;;;10.70;93.40;;;;;;5054223;28;20257;-70
2022/04/13 05:47:59;;;;;;;0.30;0.30;;;11.00;93.20;;;;;;5056289;28;20674;-70
2022/04/13 05:50:25;;;;;;;0.30;0.30;;;11.30;92.60;;;;;;5055707;28;20249;-70
2022/04/13 05:52:51;;;;;;;0.30;0.30;;;11.60;92.40;;;;;;5056020;28;20446;-71
2022/04/13 05:55:17;;;;;;;0.30;0.30;;;11.90;91.90;;;;;;5055815;28;20458;-70
2022/04/13 05:57:42;;;;;;;0.30;0.30;;;12.30;91.70;;;;;;5055637;28;20557;-70
2022/04/13 06:00:11;;;;;;;0.30;0.30;;;12.80;91.10;;;;;;5055505;28;20254;-70
2022/04/13 06:02:38;;;;;;;0.30;0.30;;;13.20;90.40;;;;;;5055693;28;20198;-71
2022/04/13 06:05:05;;;;;;;0.30;0.30;;;13.40;88.90;;;;;;5054360;28;20425;-71
2022/04/13 06:07:31;;;;;;;0.30;0.30;;;13.70;87.60;;;;;;5055376;28;20535;-70
2022/04/13 06:10:03;;;;;;;0.30;0.30;;;13.90;85.90;;;;;;5055145;28;20408;-71
2022/04/13 06:12:29;;;;;;;0.30;0.30;;;14.10;85.10;;;;;;5055575;28;20907;-70
2022/04/13 06:15:20;;;;;;;0.30;0.30;;;14.20;83.60;;;;;;5055796;28;20830;-70
2022/04/13 06:17:46;;;;;;;0.30;0.30;;;14.50;82.70;;;;;;5053467;28;20448;-70
2022/04/13 06:20:14;;;;;;;0.30;0.30;;;14.80;81.70;;;;;;5055142;28;20438;-70
2022/04/13 06:22:41;;;;;;;0.40;0.40;;;15.10;80.00;;;;;;5054878;28;20194;-70
2022/04/13 06:25:09;;;;;;;0.30;0.30;;;15.30;79.20;;;;;;5055137;28;20462;-71
2022/04/13 06:27:35;;;;;;;0.30;0.30;;;15.50;78.70;;;;;;5055001;28;20471;-71
2022/04/13 06:30:01;;;;;;;0.93;0.93;;;15.70;78.00;;;;;;5054958;28;20492;-70
2022/04/13 06:32:33;;;;;;;0.40;0.40;;;16.00;76.00;;;;;;5054487;28;20409;-70
2022/04/13 06:35:00;;;;;;;0.30;0.30;;;16.30;74.50;;;;;;5055204;28;20404;-70
2022/04/13 06:37:26;;;;;;;0.30;0.30;;;16.40;72.00;;;;;;5054820;28;20440;-70
2022/04/13 06:39:52;;;;;;;0.30;0.30;;;16.80;72.20;;;;;;5054924;28;20409;-70
2022/04/13 06:42:20;;;;;;;0.30;0.30;;;17.20;70.80;;;;;;5054891;28;20434;-71
2022/04/13 06:44:45;;;;;;;0.33;0.33;;;17.50;69.80;;;;;;5054452;28;20410;-71
2022/04/13 06:47:11;;;;;;;0.30;0.30;;;17.90;66.80;;;;;;5053578;28;20475;-71
2022/04/13 06:49:39;;;;;;;0.30;0.30;;;18.30;65.20;;;;;;5054793;28;20178;-70
2022/04/13 06:52:05;;;;;;;0.30;0.30;;;18.70;65.50;;;;;;5054741;28;20169;-70
2022/04/13 06:54:30;;;;;;;0.30;0.30;;;19.00;63.50;;;;;;5054966;28;20745;-70
2022/04/13 06:56:56;;;;;;;0.30;0.30;;;19.30;62.10;;;;;;5054554;28;20197;-71
2022/04/13 06:59:22;;;;;;;0.30;0.30;;;19.50;62.20;;;;;;5053703;28;20192;-71
2022/04/13 07:01:47;;;;;;;0.30;0.30;;;19.90;61.10;;;;;;5054197;28;20419;-71
2022/04/13 07:04:14;;;;;;;1.80;1.70;;;20.50;59.50;;;;;;5054735;28;20173;-70
2022/04/13 07:06:39;;;;;;;0.30;0.30;;;21.20;57.50;;;;;;5053826;28;20236;-71
2022/04/13 07:09:05;;;;;;;0.30;0.30;;;21.80;56.10;;;;;;5054445;28;20413;-71
2022/04/13 07:11:31;;;;;;;0.40;0.40;;;22.30;54.60;;;;;;5054245;28;20634;-71
2022/04/13 07:13:56;;;;;;;0.30;0.30;;;22.90;53.10;;;;;;5054424;28;20497;-71
2022/04/13 07:16:22;;;;;;;0.30;0.30;;;23.30;51.50;;;;;;5054237;28;20221;-71
2022/04/13 07:18:48;;;;;;;0.40;0.40;;;23.70;49.30;;;;;;5054144;28;20553;-72
2022/04/13 07:21:13;;;;;;;0.30;0.30;;;24.10;47.90;;;;;;5053823;28;20208;-72
2022/04/13 07:23:39;;;;;;;0.30;0.30;;;24.90;46.00;;;;;;5053856;28;20170;-71
2022/04/13 07:26:05;;;;;;;0.30;0.30;;;25.60;44.30;;;;;;5054072;28;20631;-71
2022/04/13 07:28:30;;;;;;;0.30;0.30;;;26.40;42.50;;;;;;5053947;28;20573;-71
2022/04/13 07:30:56;;;;;;;0.30;0.30;;;26.80;41.10;;;;;;5051589;28;20221;-71
2022/04/13 07:33:21;;;;;;;0.30;0.30;;;27.10;39.70;;;;;;5054167;28;20537;-72
2022/04/13 07:35:47;;;;;;;0.40;0.40;;;27.50;39.80;;;;;;5054107;28;20603;-71
2022/04/13 07:38:13;;;;;;;0.30;0.30;;;27.90;38.40;;;;;;5054247;28;20193;-71
2022/04/13 07:40:38;;;;;;;0.30;0.30;;;28.30;37.10;;;;;;5054098;28;20666;-71
2022/04/13 07:43:06;;;;;;;0.30;0.30;;;28.60;35.90;;;;;;5052219;28;20210;-71
2022/04/13 07:45:31;;;;;;;0.50;0.50;;;29.30;34.80;;;;;;5053944;28;20216;-74
2022/04/13 07:47:57;;;;;;;0.30;0.30;;;29.80;33.50;;;;;;5053479;28;20496;-72
2022/04/13 07:50:23;;;;;;;0.30;0.30;;;30.00;31.90;;;;;;5051812;28;20202;-72
2022/04/13 07:52:49;;;;;;;0.30;0.30;;;29.80;32.00;;;;;;5053667;28;20817;-72
2022/04/13 07:55:15;;;;;;;1.33;1.33;;;29.60;31.70;;;;;;5052638;28;20166;-72
2022/04/13 07:57:43;;;;;;;0.30;0.30;;;29.30;31.60;;;;;;5052563;28;20198;-72
2022/04/13 08:00:11;;;;;;;0.30;0.30;;;28.90;31.60;;;;;;5050938;28;20232;-71
2022/04/13 08:02:38;;;;;;;0.30;0.30;;;28.60;31.50;;;;;;5049792;28;20423;-71
2022/04/13 08:05:04;;;;;;;0.30;0.30;;;28.00;30.50;;;;;;5053188;28;20413;-71
2022/04/13 08:07:30;;;;;;;0.30;0.30;;;27.50;31.60;;;;;;5053571;28;20584;-72
2022/04/13 08:09:55;;;;;;;0.30;0.30;;;27.20;31.90;;;;;;5051020;28;20412;-70
2022/04/13 08:12:21;;;;;;;0.40;0.40;;;27.00;32.20;;;;;;5053790;28;20171;-69
2022/04/13 08:14:47;;;;;;;0.30;0.30;;;27.40;31.70;;;;;;5053498;28;20170;-71
2022/04/13 08:17:13;;;;;;;0.30;0.30;;;27.50;31.00;;;;;;5051820;28;20189;-71
2022/04/13 08:19:39;;;;;;;0.30;0.30;;;27.20;31.40;;;;;;5053578;28;20189;-71
2022/04/13 08:22:05;;;;;;;0.30;0.30;;;27.00;31.60;;;;;;5053163;28;20424;-71
2022/04/13 08:24:31;;;;;;;0.30;0.30;;;26.70;31.90;;;;;;5052288;28;20408;-71
2022/04/13 08:26:59;;;;;;;0.30;0.30;;;26.40;32.10;;;;;;5053327;28;20555;-72
2022/04/13 08:29:26;;;;;;;0.30;0.30;;;26.50;32.80;;;;;;5053682;28;20173;-70
2022/04/13 08:31:51;;;;;;;0.30;0.30;;;26.60;32.90;;;;;;5051187;28;20405;-70
2022/04/13 08:34:17;;;;;;;0.40;0.40;;;27.00;31.90;;;;;;5053644;28;20412;-71
2022/04/13 08:36:43;;;;;;;0.30;0.30;;;27.00;32.10;;;;;;5057074;28;20178;-72
2022/04/13 08:39:13;;;;;;;0.40;0.40;;;27.00;32.20;;;;;;5057228;28;20566;-70
2022/04/13 08:41:57;;;;;;;0.30;0.30;;;27.30;32.40;;;;;;5056792;28;20261;-70
2022/04/13 08:44:36;;;;;;;0.30;0.30;;;28.00;31.40;;;;;;5057227;28;20411;-70
2022/04/13 08:47:06;;;;;;;0.30;0.30;;;27.90;31.00;;;;;;5056920;28;20466;-70
2022/04/13 08:49:34;;;;;;;0.30;0.30;;;27.90;31.80;;;;;;5057325;28;20481;-69
2022/04/13 08:52:03;;;;;;;0.30;0.30;;;28.10;30.70;;;;;;5056895;28;20401;-69
2022/04/13 08:54:32;;;;;;;0.30;0.30;;;28.10;31.10;;;;;;5057084;28;20400;-71
2022/04/13 08:56:58;;;;;;;0.50;0.50;;;27.80;31.00;;;;;;5055817;28;20460;-69
2022/04/13 08:59:43;;;;;;;0.30;0.30;;;27.70;31.10;;;;;;5056160;28;20893;-68
2022/04/13 09:02:47;;;;;;;0.30;0.30;;;27.80;30.90;;;;;;5064701;28;20509;-68
2022/04/13 09:05:16;;;;;;;0.30;0.30;;;27.80;31.00;;;;;;5055109;28;20927;-67
2022/04/13 09:07:42;;;;;;;1.20;1.13;;;27.40;31.20;;;;;;5056927;28;20495;-69
2022/04/13 09:10:18;;;;;;;0.30;0.30;;;27.50;31.70;;;;;;5056658;28;20893;-68
2022/04/13 09:12:45;;;;;;;0.30;0.30;;;27.60;31.40;;;;;;5057342;28;20515;-69
2022/04/13 09:15:12;;;;;;;0.30;0.30;;;27.80;31.20;;;;;;5057095;28;20428;-67
2022/04/13 09:17:38;;;;;;;0.37;0.37;;;27.60;31.40;;;;;;5056624;28;20440;-68
2022/04/13 09:20:04;;;;;;;0.30;0.30;;;27.80;31.80;;;;;;5056270;28;20416;-69
2022/04/13 09:22:31;;;;;;;0.40;0.40;;;27.90;31.00;;;;;;5056744;28;20192;-69
2022/04/13 09:24:58;;;;;;;0.30;0.30;;;28.20;31.10;;;;;;5056707;28;20404;-70
2022/04/13 09:27:24;;;;;;;0.30;0.30;;;28.10;30.80;;;;;;5056345;28;20452;-69
2022/04/13 09:29:50;;;;;;;0.30;0.30;;;28.20;30.80;;;;;;5056528;28;20403;-68
2022/04/13 09:32:18;;;;;;;0.30;0.30;;;28.30;30.90;;;;;;5056819;28;20412;-70
2022/04/13 09:34:44;;;;;;;0.30;0.30;;;28.10;30.40;;;;;;5056426;28;20487;-67
2022/04/13 09:37:10;;;;;;;0.37;0.37;;;27.70;31.60;;;;;;5056007;28;20865;-70
2022/04/13 09:39:37;;;;;;;0.30;0.30;;;27.10;31.80;;;;;;5056379;28;20182;-69
2022/04/13 09:42:04;;;;;;;0.60;0.60;;;26.90;32.00;;;;;;5053597;28;20837;-69
2022/04/13 09:44:30;;;;;;;0.33;0.33;;;26.80;32.60;;;;;;5055971;28;20746;-69
2022/04/13 09:47:06;;;;;;;0.30;0.30;;;27.20;33.30;;;;;;5052050;28;20456;-69
2022/04/13 09:49:32;;;;;;;0.30;0.30;;;27.20;32.40;;;;;;5055862;28;20420;-69
2022/04/13 09:51:58;;;;;;;0.30;0.30;;;27.30;32.40;;;;;;5056008;28;20393;-69
2022/04/13 09:54:25;;;;;;;0.50;0.50;;;27.30;32.80;;;;;;5056216;28;20634;-69
2022/04/13 09:56:51;;;;;;;0.30;0.30;;;27.20;32.30;;;;;;5056135;28;20484;-69
2022/04/13 09:59:30;;;;;;;0.30;0.30;;;27.10;32.70;;;;;;5056352;28;20407;-69
2022/04/13 10:01:56;;;;;;;0.30;0.30;;;27.20;32.80;;;;;;5055644;28;20820;-69
2022/04/13 10:04:25;;;;;;;0.50;0.50;;;27.30;33.10;;;;;;5055945;28;20402;-70
2022/04/13 10:06:51;;;;;;;0.30;0.30;;;27.60;32.50;;;;;;5055762;28;20785;-69
2022/04/13 10:09:16;;;;;;;0.30;0.30;;;27.60;32.80;;;;;;5052599;28;20416;-69
2022/04/13 10:12:03;;;;;;;0.30;0.30;;;27.30;32.90;;;;;;5055392;28;20405;-70
2022/04/13 10:14:29;;;;;;;0.30;0.30;;;27.50;33.40;;;;;;5054507;28;20254;-69
2022/04/13 10:17:06;;;;;;;0.30;0.30;;;27.50;33.10;;;;;;5056823;28;21092;-69
2022/04/13 10:19:32;;;;;;;0.30;0.30;;;27.20;33.60;;;;;;5056431;28;20436;-68
2022/04/13 10:21:59;;;;;;;0.30;0.30;;;27.50;33.30;;;;;;5053198;28;20937;-68
2022/04/13 10:24:26;;;;;;;0.40;0.40;;;27.10;32.90;;;;;;5055356;28;20166;-68
2022/04/13 10:27:07;;;;;;;0.30;0.30;;;26.90;34.60;;;;;;5054925;28;20989;-70
2022/04/13 10:29:34;;;;;;;0.60;0.50;;;27.00;34.40;;;;;;5053708;28;20737;-68
2022/04/13 10:32:12;;;;;;;0.30;0.30;;;26.90;34.90;;;;;;5055241;28;20458;-67
2022/04/13 10:34:39;;;;;;;0.40;0.40;;;26.90;34.70;;;;;;5053510;28;20455;-69
2022/04/13 10:37:06;;;;;;;0.30;0.30;;;27.00;34.40;;;;;;5054376;28;20425;-70
2022/04/13 10:39:32;;;;;;;0.30;0.30;;;27.10;34.60;;;;;;5053382;28;20408;-70
2022/04/13 10:41:58;;;;;;;0.40;0.40;;;27.00;34.60;;;;;;5055918;28;20382;-68
2022/04/13 10:44:34;;;;;;;0.30;0.30;;;26.80;35.10;;;;;;5056629;28;20416;-69
2022/04/13 10:47:11;;;;;;;0.30;0.30;;;26.50;36.00;;;;;;5052556;28;20462;-69
2022/04/13 10:49:59;;;;;;;0.30;0.30;;;26.50;35.90;;;;;;5054849;28;20400;-69
2022/04/13 10:52:30;;;;;;;0.30;0.30;;;26.00;37.70;;;;;;5055070;28;20483;-69
2022/04/13 10:55:05;;;;;;;0.30;0.30;;;25.90;37.20;;;;;;5053529;28;20464;-69
2022/04/13 10:58:05;;;;;;;0.30;0.30;;;26.10;37.10;;;;;;5053190;28;20745;-70
2022/04/13 11:00:35;;;;;;;0.30;0.30;;;25.90;37.00;;;;;;5052440;28;20451;-69
2022/04/13 11:03:05;;;;;;;0.30;0.30;;;25.70;38.10;;;;;;5054651;28;20482;-69
2022/04/13 11:05:31;;;;;;;0.30;0.30;;;25.50;36.90;;;;;;5054615;28;20829;-69
2022/04/13 11:08:14;;;;;;;0.40;0.40;;;24.90;37.60;;;;;;5054402;28;20442;-69
2022/04/13 11:10:42;;;;;;;0.30;0.30;;;24.60;38.70;;;;;;5054516;28;20375;-69
2022/04/13 11:13:08;;;;;;;0.30;0.30;;;24.60;39.50;;;;;;5054836;28;20405;-69
2022/04/13 11:15:38;;;;;;;0.30;0.30;;;24.70;39.90;;;;;;5054249;28;20431;-68
2022/04/13 11:18:08;;;;;;;0.30;0.30;;;24.70;38.70;;;;;;5054238;28;20951;-69
2022/04/13 11:20:34;;;;;;;0.30;0.30;;;24.50;38.90;;;;;;5054240;28;20721;-68
2022/04/13 11:23:14;;;;;;;0.30;0.30;;;24.50;39.70;;;;;;5053879;28;20472;-68
2022/04/13 11:25:53;;;;;;;0.30;0.30;;;24.30;39.40;;;;;;5054198;28;20391;-69
2022/04/13 11:28:31;;;;;;;0.40;0.40;;;24.10;39.20;;;;;;5054155;28;20530;-69
2022/04/13 11:31:11;;;;;;;0.30;0.30;;;23.80;39.20;;;;;;5053930;28;20432;-69
2022/04/13 11:33:39;;;;;;;0.40;0.40;;;23.60;40.20;;;;;;5054284;28;20730;-69
2022/04/13 11:36:05;;;;;;;1.17;0.40;;;23.70;39.70;;;;;;5054149;28;20387;-69
2022/04/13 11:38:36;;;;;;;0.30;0.30;;;24.00;40.10;;;;;;5053845;28;20922;-69
2022/04/13 11:41:07;;;;;;;0.30;0.30;;;24.10;39.00;;;;;;5053843;28;20174;-69
2022/04/13 11:43:33;;;;;;;0.77;0.50;;;23.80;39.10;;;;;;5053999;28;20387;-69
2022/04/13 11:46:00;;;;;;;0.30;0.30;;;23.80;39.40;;;;;;5054040;28;20397;-69
2022/04/13 11:48:33;;;;;;;0.30;0.30;;;23.90;40.10;;;;;;5053583;28;20965;-70
2022/04/13 11:51:29;;;;;;;0.50;0.50;;;23.90;39.80;;;;;;5052851;28;21172;-68
2022/04/13 11:54:04;;;;;;;0.30;0.30;;;23.90;39.60;;;;;;5052974;28;20391;-69
2022/04/13 11:56:35;;;;;;;0.30;0.30;;;23.70;39.40;;;;;;5053831;28;20404;-69
2022/04/13 11:59:00;;;;;;;0.40;0.40;;;23.70;39.80;;;;;;5050146;28;20462;-69
2022/04/13 12:01:26;;;;;;;0.30;0.30;;;23.70;40.60;;;;;;5053473;28;20409;-69
2022/04/13 12:03:54;;;;;;;0.30;0.30;;;23.90;39.70;;;;;;5053634;28;20412;-70
2022/04/13 12:06:22;;;;;;;0.30;0.30;;;24.20;40.70;;;;;;5053381;28;20399;-69
2022/04/13 12:08:54;;;;;;;0.30;0.30;;;24.10;39.30;;;;;;5053500;28;20457;-69
2022/04/13 12:11:21;;;;;;;0.87;0.60;;;23.80;39.20;;;;;;5053345;28;20542;-69
2022/04/13 12:13:52;;;;;;;0.40;0.40;;;23.50;39.60;;;;;;5053518;28;20439;-69
2022/04/13 12:16:33;;;;;;;0.30;0.30;;;23.40;39.90;;;;;;5052232;28;20962;-69
2022/04/13 12:19:09;;;;;;;0.30;0.30;;;23.20;40.60;;;;;;5053110;28;20457;-69
2022/04/13 12:21:39;;;;;;;0.30;0.30;;;23.00;41.40;;;;;;5053051;28;20402;-69
2022/04/13 12:24:10;;;;;;;0.30;0.30;;;22.90;41.10;;;;;;5053364;28;20411;-69
2022/04/13 12:26:38;;;;;;;0.30;0.30;;;22.90;41.80;;;;;;5053332;28;20488;-69
2022/04/13 12:29:30;;;;;;;0.30;0.30;;;22.90;41.40;;;;;;5053277;28;20488;-69
2022/04/13 12:31:56;;;;;;;0.40;0.40;;;23.10;41.00;;;;;;5051002;28;20984;-69
2022/04/13 12:34:23;;;;;;;0.30;0.30;;;23.20;42.30;;;;;;5053469;28;20491;-69
2022/04/13 12:36:56;;;;;;;0.30;0.30;;;23.30;42.10;;;;;;5053381;28;20205;-69
2022/04/13 12:39:33;;;;;;;0.30;0.30;;;23.50;40.70;;;;;;5053249;28;20550;-69
2022/04/13 12:42:01;;;;;;;0.30;0.30;;;23.70;40.10;;;;;;5053033;28;20427;-69
2022/04/13 12:44:28;;;;;;;0.30;0.30;;;23.50;40.90;;;;;;5053265;28;20755;-69
2022/04/13 12:47:05;;;;;;;0.97;0.97;;;23.50;40.40;;;;;;5053041;28;20459;-69
2022/04/13 12:49:31;;;;;;;0.30;0.30;;;23.10;40.60;;;;;;5053138;28;20480;-69
2022/04/13 12:51:57;;;;;;;0.30;0.30;;;22.70;41.30;;;;;;5051596;28;20413;-69
2022/04/13 12:54:24;;;;;;;0.30;0.30;;;22.50;41.60;;;;;;5053137;28;20443;-69